KJVL/JVL METAR and TAF weather

Enter ICAO airport designator
Station Type Date Time Source
KJVL METAR 2022/01/25 04:35 UTC NOAA

KJVL 250435Z AUTO 00000KT 10SM SCT029 M14/M17 A3002 RMK AO2


Station Type Date Time Source
KJVL Decoded METAR 2022/01/25 04:35 UTC NOAA

Janesville / Rock County, WI, United States (KJVL) 42-37N 089-02W
Jan 24, 2022 - 11:35 PM EST / 2022.01.25 0435 UTC
Wind: Calm:0
Visibility: 10 mile(s):0
Sky conditions: partly cloudy
Temperature: 6 F (-14 C)
Dew Point: 1 F (-17 C)
Relative Humidity: 77%
Pressure (altimeter): 30.02 in. Hg (1016 hPa)
ob: KJVL 250435Z AUTO 00000KT 10SM SCT029 M14/M17 A3002 RMK AO2
cycle: 4

Station Type Date Time Source
KJVL TAF 2022/01/25 03:30 UTC NOAA

TAF
AMD KJVL 250328Z 2503/2524 34008KT P6SM SKC
TEMPO 2503/2505 BKN030
FM251800 30010KT P6SM FEW200

Example: see airport list